createdAt,value
2017-12-03T00:00:09.678Z,84.01
2017-12-03T00:01:12.691Z,83.89
2017-12-03T00:02:15.669Z,84.42
2017-12-03T00:03:18.743Z,85.24
2017-12-03T00:04:22.988Z,87.00
2017-12-03T00:05:25.935Z,85.92
2017-12-03T00:06:28.801Z,85.54
2017-12-03T00:07:31.681Z,85.93
2017-12-03T00:08:34.627Z,86.00
2017-12-03T00:09:37.501Z,85.78
2017-12-03T00:10:40.820Z,86.36
2017-12-03T00:11:43.719Z,86.52
2017-12-03T00:12:46.643Z,86.62
2017-12-03T00:13:49.523Z,86.94
2017-12-03T00:14:52.401Z,86.16
2017-12-03T00:15:55.356Z,86.71
2017-12-03T00:16:58.740Z,87.62
2017-12-03T00:18:01.667Z,87.31
2017-12-03T00:19:04.590Z,87.55
2017-12-03T00:20:07.527Z,87.61
2017-12-03T00:21:10.444Z,87.63
2017-12-03T00:22:13.336Z,87.22
2017-12-03T00:23:16.737Z,87.40
2017-12-03T00:24:19.641Z,87.17
2017-12-03T00:25:22.577Z,87.32
2017-12-03T00:26:25.521Z,86.59
2017-12-03T00:27:28.535Z,86.94
2017-12-03T00:28:31.477Z,88.32
2017-12-03T00:29:34.803Z,86.90
2017-12-03T00:30:37.764Z,86.74
2017-12-03T00:31:40.703Z,86.67
2017-12-03T00:32:43.608Z,87.32
2017-12-03T00:33:46.516Z,86.89
2017-12-03T00:34:49.464Z,86.99
2017-12-03T00:35:52.859Z,86.96
2017-12-03T00:36:55.789Z,85.84
2017-12-03T00:37:58.688Z,86.15
2017-12-03T00:39:01.649Z,86.71
2017-12-03T00:40:04.583Z,86.84
2017-12-03T00:41:07.520Z,86.67
2017-12-03T00:42:10.872Z,85.91
2017-12-03T00:43:13.808Z,85.59
2017-12-03T00:44:16.798Z,85.77
2017-12-03T00:45:19.693Z,85.84
2017-12-03T00:46:22.639Z,85.81
2017-12-03T00:47:25.583Z,85.64
2017-12-03T00:48:28.922Z,86.15
2017-12-03T00:49:31.855Z,86.84
2017-12-03T00:50:34.752Z,87.01
2017-12-03T00:51:37.690Z,86.88
2017-12-03T00:52:40.629Z,86.64
2017-12-03T00:53:43.546Z,87.12
2017-12-03T00:54:46.795Z,86.32
2017-12-03T00:55:49.664Z,86.99
2017-12-03T00:56:52.644Z,86.93
2017-12-03T00:57:55.610Z,86.08
2017-12-03T00:58:58.538Z,86.34
2017-12-03T01:00:01.472Z,86.14
2017-12-03T01:01:04.848Z,87.46
2017-12-03T01:02:07.770Z,87.58
2017-12-03T01:03:10.705Z,86.69
2017-12-03T01:04:13.611Z,87.40
2017-12-03T01:05:16.570Z,87.91
2017-12-03T01:06:19.459Z,86.66
2017-12-03T01:07:22.732Z,86.93
2017-12-03T01:08:25.704Z,87.60
2017-12-03T01:09:28.718Z,87.74
2017-12-03T01:10:31.736Z,87.95
2017-12-03T01:11:34.737Z,87.71
2017-12-03T01:12:37.681Z,87.33
2017-12-03T01:13:41.534Z,87.94
2017-12-03T01:14:44.453Z,88.01
2017-12-03T01:15:47.463Z,87.21
2017-12-03T01:16:50.328Z,87.29
2017-12-03T01:17:53.365Z,86.83
2017-12-03T01:18:56.259Z,86.87
2017-12-03T01:19:59.583Z,86.63
2017-12-03T01:21:02.426Z,86.81
2017-12-03T01:22:05.548Z,87.29
2017-12-03T01:23:08.414Z,87.97
2017-12-03T01:24:11.289Z,88.03
2017-12-03T01:25:14.260Z,86.76
2017-12-03T01:26:17.582Z,87.42
2017-12-03T01:27:20.389Z,87.18
2017-12-03T01:28:23.389Z,87.41
2017-12-03T01:29:26.303Z,87.89
2017-12-03T01:30:29.184Z,88.82
2017-12-03T01:31:32.084Z,88.41
2017-12-03T01:32:35.392Z,88.91
2017-12-03T01:33:38.307Z,88.87
2017-12-03T01:34:41.269Z,88.44
2017-12-03T01:35:44.140Z,88.45
2017-12-03T01:36:47.062Z,88.10
2017-12-03T01:37:50.018Z,87.78
2017-12-03T01:38:53.396Z,88.02
2017-12-03T01:39:56.323Z,88.55
2017-12-03T01:40:59.219Z,88.43
2017-12-03T01:42:02.124Z,88.62
2017-12-03T01:43:05.011Z,88.81
2017-12-03T01:44:07.853Z,88.60
2017-12-03T01:45:10.993Z,88.72
2017-12-03T01:46:13.856Z,88.82
2017-12-03T01:47:16.706Z,88.76
2017-12-03T01:48:19.598Z,88.83
2017-12-03T01:49:22.573Z,88.18
2017-12-03T01:50:25.455Z,88.02
2017-12-03T01:51:28.745Z,87.92
2017-12-03T01:52:31.624Z,87.54
2017-12-03T01:53:34.788Z,88.13
2017-12-03T01:54:37.731Z,87.95
2017-12-03T01:55:40.709Z,88.14
2017-12-03T01:56:43.655Z,87.84
2017-12-03T01:57:46.924Z,87.56
2017-12-03T01:58:49.905Z,86.82
2017-12-03T01:59:52.711Z,88.06
2017-12-03T02:00:55.521Z,88.27
2017-12-03T02:01:58.382Z,89.07
2017-12-03T02:03:01.302Z,89.59
2017-12-03T02:04:04.565Z,88.77
2017-12-03T02:05:07.460Z,88.12
2017-12-03T02:06:10.521Z,87.81
2017-12-03T02:07:13.414Z,87.72
2017-12-03T02:08:16.431Z,88.77
2017-12-03T02:09:19.352Z,88.83
2017-12-03T02:10:22.706Z,88.36
2017-12-03T02:11:25.801Z,87.85
2017-12-03T02:12:28.701Z,87.61
2017-12-03T02:13:31.591Z,88.45
2017-12-03T02:14:34.467Z,88.01
2017-12-03T02:15:37.382Z,88.15
2017-12-03T02:16:41.067Z,87.46
2017-12-03T02:17:43.984Z,88.02
2017-12-03T02:18:46.957Z,88.21
2017-12-03T02:19:49.847Z,87.22
2017-12-03T02:20:52.925Z,87.32
2017-12-03T02:21:55.834Z,87.73
2017-12-03T02:22:59.224Z,88.02
2017-12-03T02:24:02.177Z,88.70
2017-12-03T02:25:05.081Z,88.99
2017-12-03T02:26:08.062Z,89.05
2017-12-03T02:27:11.027Z,88.50
2017-12-03T02:28:14.031Z,88.25
2017-12-03T02:29:17.269Z,88.97
2017-12-03T02:30:20.291Z,88.77
2017-12-03T02:31:23.332Z,88.94
2017-12-03T02:32:26.325Z,88.98
2017-12-03T02:33:29.453Z,88.20
2017-12-03T02:34:32.328Z,88.90
2017-12-03T02:35:35.729Z,88.69
2017-12-03T02:36:38.645Z,88.20
2017-12-03T02:37:41.613Z,87.93
2017-12-03T02:38:44.531Z,88.53
2017-12-03T02:39:47.453Z,88.90
2017-12-03T02:40:50.391Z,88.67
2017-12-03T02:41:53.663Z,88.84
2017-12-03T02:42:56.514Z,88.67
2017-12-03T02:43:59.357Z,88.76
2017-12-03T02:45:02.283Z,88.61
2017-12-03T02:46:05.195Z,88.49
2017-12-03T02:47:08.169Z,88.52
2017-12-03T02:48:11.435Z,88.61
2017-12-03T02:49:14.358Z,88.81
2017-12-03T02:50:17.303Z,89.15
2017-12-03T02:51:20.223Z,88.94
2017-12-03T02:52:23.178Z,89.42
2017-12-03T02:53:26.109Z,89.14
2017-12-03T02:54:29.523Z,89.01
2017-12-03T02:55:32.562Z,88.63
2017-12-03T02:56:35.471Z,88.21
2017-12-03T02:57:38.414Z,88.18
2017-12-03T02:58:41.325Z,88.29
2017-12-03T02:59:44.267Z,88.74
2017-12-03T03:00:47.621Z,88.64
2017-12-03T03:01:50.532Z,88.47
2017-12-03T03:02:53.443Z,88.61
2017-12-03T03:03:56.366Z,89.19
2017-12-03T03:04:59.298Z,89.69
2017-12-03T03:06:02.241Z,89.66
2017-12-03T03:07:05.631Z,89.80
2017-12-03T03:08:08.561Z,89.16
2017-12-03T03:09:11.474Z,89.51
2017-12-03T03:10:14.393Z,88.94
2017-12-03T03:11:17.304Z,88.73
2017-12-03T03:12:20.233Z,88.81
2017-12-03T03:13:23.476Z,89.11
2017-12-03T03:14:26.512Z,88.70
2017-12-03T03:15:29.374Z,88.52
2017-12-03T03:16:32.297Z,88.89
2017-12-03T03:17:35.130Z,88.82
2017-12-03T03:18:37.986Z,89.51
2017-12-03T03:19:41.223Z,88.80
2017-12-03T03:20:44.148Z,89.11
2017-12-03T03:21:47.131Z,89.37
2017-12-03T03:22:50.030Z,89.08
2017-12-03T03:23:52.976Z,89.20
2017-12-03T03:24:55.946Z,89.67
2017-12-03T03:25:59.339Z,89.97
2017-12-03T03:27:02.260Z,89.41
2017-12-03T03:28:05.198Z,88.89
2017-12-03T03:29:08.161Z,89.09
2017-12-03T03:30:11.093Z,88.80
2017-12-03T03:31:14.002Z,88.92
2017-12-03T03:32:17.317Z,89.07
2017-12-03T03:33:20.259Z,88.58
2017-12-03T03:34:23.153Z,88.38
2017-12-03T03:35:26.083Z,88.77
2017-12-03T03:36:29.030Z,88.79
2017-12-03T03:37:32.342Z,88.73
2017-12-03T03:38:35.260Z,88.51
2017-12-03T03:39:38.195Z,88.38
2017-12-03T03:40:41.130Z,89.14
2017-12-03T03:41:44.026Z,88.17
2017-12-03T03:42:46.995Z,88.78
2017-12-03T03:43:50.299Z,88.71
2017-12-03T03:44:53.141Z,88.79
2017-12-03T03:45:56.034Z,88.84
2017-12-03T03:46:58.981Z,88.24
2017-12-03T03:48:01.930Z,89.01
2017-12-03T03:49:04.932Z,89.28
2017-12-03T03:50:08.235Z,89.64
2017-12-03T03:51:11.150Z,88.80
2017-12-03T03:52:14.179Z,89.58
2017-12-03T03:53:17.073Z,89.09
2017-12-03T03:54:20.000Z,89.36
2017-12-03T03:55:22.918Z,88.97
2017-12-03T03:56:26.287Z,89.00
2017-12-03T03:57:29.268Z,88.85
2017-12-03T03:58:32.210Z,88.85
2017-12-03T03:59:35.204Z,88.63
2017-12-03T04:00:38.157Z,88.94
2017-12-03T04:01:41.177Z,88.44
2017-12-03T04:02:44.576Z,89.39
2017-12-03T04:03:47.585Z,88.92
2017-12-03T04:04:50.493Z,89.60
2017-12-03T04:05:53.412Z,88.72
2017-12-03T04:06:56.360Z,88.77
2017-12-03T04:07:59.308Z,89.21
2017-12-03T04:09:02.629Z,89.30
2017-12-03T04:10:05.569Z,88.97
2017-12-03T04:11:08.547Z,89.36
2017-12-03T04:12:11.557Z,88.91
2017-12-03T04:13:14.626Z,88.23
2017-12-03T04:14:17.620Z,88.92
2017-12-03T04:15:20.943Z,88.34
2017-12-03T04:16:23.984Z,88.82
2017-12-03T04:17:27.069Z,89.04
2017-12-03T04:18:30.013Z,88.47
2017-12-03T04:19:32.967Z,88.42
2017-12-03T04:20:35.890Z,88.90
2017-12-03T04:21:39.428Z,89.18
2017-12-03T04:22:42.552Z,89.56
2017-12-03T04:23:45.506Z,89.22
2017-12-03T04:24:48.442Z,89.01
2017-12-03T04:25:51.386Z,88.94
2017-12-03T04:26:54.431Z,88.65
2017-12-03T04:27:57.831Z,89.05
2017-12-03T04:29:00.853Z,88.89
2017-12-03T04:30:03.947Z,89.10
2017-12-03T04:31:06.875Z,88.77
2017-12-03T04:32:09.929Z,89.15
2017-12-03T04:33:12.873Z,88.51
2017-12-03T04:34:16.282Z,89.34
2017-12-03T04:35:19.260Z,88.97
2017-12-03T04:36:22.197Z,89.28
2017-12-03T04:37:25.237Z,89.73
2017-12-03T04:38:28.209Z,89.16
2017-12-03T04:39:31.518Z,88.18
2017-12-03T04:40:35.224Z,88.07
2017-12-03T04:41:38.150Z,87.61
2017-12-03T04:42:41.151Z,88.62
2017-12-03T04:43:44.080Z,88.30
2017-12-03T04:44:47.184Z,88.56
2017-12-03T04:45:50.136Z,88.50
2017-12-03T04:46:53.493Z,87.44
2017-12-03T04:47:56.469Z,87.69
2017-12-03T04:48:59.669Z,87.00
2017-12-03T04:50:02.674Z,87.28
2017-12-03T04:51:05.745Z,88.19
2017-12-03T04:52:08.713Z,87.51
2017-12-03T04:53:12.102Z,87.67
2017-12-03T04:54:15.085Z,87.82
2017-12-03T04:55:18.070Z,87.73
2017-12-03T04:56:20.997Z,87.08
2017-12-03T04:57:24.059Z,87.80
2017-12-03T04:58:26.968Z,87.70
2017-12-03T04:59:30.620Z,87.43
2017-12-03T05:00:33.549Z,87.62
2017-12-03T05:01:36.511Z,87.64
2017-12-03T05:02:39.495Z,88.14
2017-12-03T05:03:42.298Z,87.75
2017-12-03T05:04:45.131Z,87.36
2017-12-03T05:05:48.397Z,87.27
2017-12-03T05:06:51.314Z,87.54
2017-12-03T05:07:54.261Z,87.12
2017-12-03T05:08:57.388Z,87.64
2017-12-03T05:10:00.315Z,86.49
2017-12-03T05:11:03.256Z,87.54
2017-12-03T05:12:06.778Z,87.36
2017-12-03T05:13:09.740Z,87.21
2017-12-03T05:14:12.757Z,87.33
2017-12-03T05:15:15.722Z,87.70
2017-12-03T05:16:18.704Z,88.23
2017-12-03T05:17:21.627Z,88.70
2017-12-03T05:18:24.977Z,88.78
2017-12-03T05:19:27.963Z,88.31
2017-12-03T05:20:30.899Z,88.44
2017-12-03T05:21:33.880Z,88.54
2017-12-03T05:22:36.836Z,88.14
2017-12-03T05:23:39.782Z,87.97
2017-12-03T05:24:43.212Z,88.03
2017-12-03T05:25:46.270Z,88.06
2017-12-03T05:26:49.206Z,88.40
2017-12-03T05:27:52.144Z,88.98
2017-12-03T05:28:55.117Z,88.82
2017-12-03T05:29:58.114Z,88.99
2017-12-03T05:31:01.478Z,89.28
2017-12-03T05:32:04.379Z,89.81
2017-12-03T05:33:07.326Z,89.73
2017-12-03T05:34:10.164Z,89.71
2017-12-03T05:35:13.137Z,90.36
2017-12-03T05:36:16.058Z,89.27
2017-12-03T05:37:19.533Z,89.50
2017-12-03T05:38:22.511Z,90.00
2017-12-03T05:39:25.447Z,90.01
2017-12-03T05:40:28.382Z,89.69
2017-12-03T05:41:31.355Z,90.26
2017-12-03T05:42:34.298Z,89.72
2017-12-03T05:43:37.542Z,89.33
2017-12-03T05:44:40.473Z,90.22
2017-12-03T05:45:43.434Z,89.82
2017-12-03T05:46:46.368Z,89.81
2017-12-03T05:47:49.375Z,89.53
2017-12-03T05:48:52.314Z,89.54
2017-12-03T05:49:55.653Z,89.93
2017-12-03T05:50:58.594Z,88.89
2017-12-03T05:52:01.532Z,89.16
2017-12-03T05:53:04.478Z,90.02
2017-12-03T05:54:07.450Z,90.04
2017-12-03T05:55:10.439Z,89.63
2017-12-03T05:56:13.709Z,89.08
2017-12-03T05:57:16.720Z,89.75
2017-12-03T05:58:19.727Z,89.47
2017-12-03T05:59:22.751Z,89.63
2017-12-03T06:00:25.721Z,89.66
2017-12-03T06:01:28.670Z,89.54
2017-12-03T06:02:31.960Z,89.88
2017-12-03T06:03:35.110Z,89.39
2017-12-03T06:04:38.319Z,89.36
2017-12-03T06:05:41.284Z,89.27
2017-12-03T06:06:44.267Z,89.06
2017-12-03T06:07:47.254Z,88.88
2017-12-03T06:08:50.624Z,88.96
2017-12-03T06:09:53.553Z,89.57
2017-12-03T06:10:56.414Z,89.12
2017-12-03T06:11:59.352Z,88.78
2017-12-03T06:13:02.264Z,88.58
2017-12-03T06:14:05.122Z,88.75
2017-12-03T06:15:08.480Z,88.86
2017-12-03T06:16:11.414Z,88.70
2017-12-03T06:17:14.392Z,88.60
2017-12-03T06:18:17.326Z,88.79
2017-12-03T06:19:20.310Z,88.98
2017-12-03T06:20:23.329Z,89.21
2017-12-03T06:21:26.915Z,89.54
2017-12-03T06:22:30.132Z,88.57
2017-12-03T06:23:33.057Z,88.23
2017-12-03T06:24:36.054Z,88.48
2017-12-03T06:25:39.104Z,88.95
2017-12-03T06:26:42.025Z,88.61
2017-12-03T06:27:45.430Z,88.23
2017-12-03T06:28:48.380Z,88.45
2017-12-03T06:29:51.302Z,88.50
2017-12-03T06:30:54.220Z,88.93
2017-12-03T06:31:57.189Z,89.35
2017-12-03T06:33:00.094Z,89.43
2017-12-03T06:34:03.433Z,89.33
2017-12-03T06:35:06.360Z,90.05
2017-12-03T06:36:09.336Z,89.78
2017-12-03T06:37:14.750Z,88.46
2017-12-03T06:38:17.976Z,89.16
2017-12-03T06:39:20.913Z,89.32
2017-12-03T06:40:24.607Z,89.53
2017-12-03T06:41:27.648Z,89.63
2017-12-03T06:42:30.602Z,89.70
2017-12-03T06:43:33.627Z,89.10
2017-12-03T06:44:36.695Z,89.49
2017-12-03T06:45:39.704Z,89.01
2017-12-03T06:46:42.717Z,89.05
2017-12-03T06:47:45.709Z,89.17
2017-12-03T06:48:48.678Z,88.83
2017-12-03T06:49:51.670Z,89.49
2017-12-03T06:50:54.642Z,89.50
2017-12-03T06:51:57.621Z,89.33
2017-12-03T06:53:00.927Z,89.68
2017-12-03T06:54:03.841Z,89.10
2017-12-03T06:55:06.790Z,89.09
2017-12-03T06:56:09.793Z,89.21
2017-12-03T06:57:12.745Z,89.34
2017-12-03T06:58:15.701Z,89.54
2017-12-03T06:59:18.954Z,88.96
2017-12-03T07:00:22.012Z,88.98
2017-12-03T07:01:24.939Z,89.07
2017-12-03T07:02:27.903Z,89.62
2017-12-03T07:03:30.913Z,89.45
2017-12-03T07:04:33.838Z,89.84
2017-12-03T07:05:37.255Z,89.61
2017-12-03T07:06:40.212Z,89.99
2017-12-03T07:07:43.277Z,89.62
2017-12-03T07:08:46.197Z,89.76
2017-12-03T07:09:49.199Z,89.51
2017-12-03T07:10:52.228Z,89.62
2017-12-03T07:11:55.538Z,89.46
2017-12-03T07:12:58.495Z,89.57
2017-12-03T07:14:01.440Z,89.99
2017-12-03T07:15:04.393Z,90.25
2017-12-03T07:16:07.348Z,90.21
2017-12-03T07:17:10.346Z,90.17
2017-12-03T07:18:13.805Z,90.48
2017-12-03T07:19:16.836Z,89.94
2017-12-03T07:20:19.862Z,89.83
2017-12-03T07:21:22.904Z,89.62
2017-12-03T07:22:25.869Z,89.71
2017-12-03T07:23:28.863Z,89.97
2017-12-03T07:24:32.382Z,89.72
2017-12-03T07:25:35.428Z,90.04
2017-12-03T07:26:38.363Z,89.71
2017-12-03T07:27:41.361Z,90.13
2017-12-03T07:28:44.483Z,90.17
2017-12-03T07:29:47.444Z,89.88
2017-12-03T07:30:50.751Z,89.87
2017-12-03T07:31:53.759Z,90.66
2017-12-03T07:32:56.710Z,90.51
2017-12-03T07:33:59.757Z,90.76
2017-12-03T07:35:02.899Z,90.90
2017-12-03T07:36:05.818Z,90.72
2017-12-03T07:37:08.688Z,90.51
2017-12-03T07:38:14.743Z,90.36
2017-12-03T07:39:17.990Z,90.99
2017-12-03T07:40:21.186Z,91.03
2017-12-03T07:41:24.491Z,90.69
2017-12-03T07:42:28.416Z,91.16
2017-12-03T07:43:31.371Z,90.48
2017-12-03T07:44:34.519Z,90.67
2017-12-03T07:45:37.492Z,90.81
2017-12-03T07:46:40.488Z,90.77
2017-12-03T07:47:43.469Z,90.18
2017-12-03T07:48:46.673Z,90.89
2017-12-03T07:49:49.634Z,90.34
2017-12-03T07:50:52.588Z,91.00
2017-12-03T07:51:55.653Z,91.08
2017-12-03T07:52:59.144Z,90.28
2017-12-03T07:54:02.515Z,90.63
2017-12-03T07:55:05.830Z,90.29
2017-12-03T07:56:08.770Z,90.09
2017-12-03T07:57:11.730Z,90.41
2017-12-03T07:58:14.720Z,90.30
2017-12-03T07:59:17.669Z,89.60
2017-12-03T08:00:20.685Z,89.91
2017-12-03T08:01:23.938Z,90.02
2017-12-03T08:02:26.954Z,89.44
2017-12-03T08:03:29.906Z,89.63
2017-12-03T08:04:32.859Z,89.45
2017-12-03T08:05:35.880Z,89.59
2017-12-03T08:06:38.885Z,90.45
2017-12-03T08:07:42.101Z,90.74
2017-12-03T08:08:45.164Z,90.22
2017-12-03T08:09:48.194Z,89.88
2017-12-03T08:10:51.149Z,90.28
2017-12-03T08:11:54.089Z,90.26
2017-12-03T08:12:57.031Z,89.82
2017-12-03T08:14:00.361Z,89.30
2017-12-03T08:15:03.286Z,89.47
2017-12-03T08:16:06.304Z,89.49
2017-12-03T08:17:09.290Z,89.82
2017-12-03T08:18:14.692Z,89.82
2017-12-03T08:19:17.650Z,89.93
2017-12-03T08:20:20.897Z,89.71
2017-12-03T08:21:23.858Z,89.44
2017-12-03T08:22:26.795Z,89.50
2017-12-03T08:23:29.755Z,89.80
2017-12-03T08:24:32.766Z,90.17
2017-12-03T08:25:35.684Z,90.38
2017-12-03T08:26:39.017Z,90.04
2017-12-03T08:27:41.967Z,90.01
2017-12-03T08:28:45.107Z,90.06
2017-12-03T08:29:48.036Z,89.65
2017-12-03T08:30:50.935Z,89.51
2017-12-03T08:31:53.784Z,89.99
2017-12-03T08:32:57.096Z,90.00
2017-12-03T08:34:00.073Z,90.56
2017-12-03T08:35:03.014Z,90.17
2017-12-03T08:36:06.034Z,89.24
2017-12-03T08:37:08.980Z,89.96
2017-12-03T08:38:11.934Z,89.63
2017-12-03T08:39:15.164Z,89.27
2017-12-03T08:40:18.113Z,89.18
2017-12-03T08:41:21.035Z,90.38
2017-12-03T08:42:24.038Z,89.49
2017-12-03T08:43:26.992Z,90.09
2017-12-03T08:44:30.154Z,90.94
2017-12-03T08:45:33.883Z,90.73
2017-12-03T08:46:36.887Z,89.85
2017-12-03T08:47:40.152Z,88.98
2017-12-03T08:48:43.290Z,89.98
2017-12-03T08:49:46.339Z,89.62
2017-12-03T08:50:50.872Z,90.71
2017-12-03T08:51:54.073Z,90.44
2017-12-03T08:52:57.146Z,92.42
2017-12-03T08:54:00.140Z,92.75
2017-12-03T08:55:03.073Z,92.22
2017-12-03T08:56:06.745Z,92.36
2017-12-03T08:57:12.591Z,91.93
2017-12-03T08:58:15.915Z,92.20
2017-12-03T08:59:18.802Z,92.17
2017-12-03T09:00:21.846Z,92.48
2017-12-03T09:01:24.793Z,91.65
2017-12-03T09:02:27.747Z,91.26
2017-12-03T09:03:30.711Z,91.84
2017-12-03T09:04:33.957Z,91.92
2017-12-03T09:05:36.937Z,91.43
2017-12-03T09:06:40.964Z,91.14
2017-12-03T09:07:43.964Z,91.32
2017-12-03T09:08:46.964Z,90.94
2017-12-03T09:09:49.902Z,91.53
2017-12-03T09:10:53.117Z,91.80
2017-12-03T09:11:56.201Z,91.84
2017-12-03T09:12:59.171Z,91.85
2017-12-03T09:14:02.164Z,91.13
2017-12-03T09:15:05.078Z,90.99
2017-12-03T09:16:08.117Z,91.47
2017-12-03T09:17:11.314Z,91.34
2017-12-03T09:18:15.886Z,91.68
2017-12-03T09:19:18.851Z,91.16
2017-12-03T09:20:21.776Z,90.71
2017-12-03T09:21:24.766Z,90.96
2017-12-03T09:22:27.758Z,90.84
2017-12-03T09:23:31.052Z,90.81
2017-12-03T09:24:34.128Z,90.66
2017-12-03T09:25:37.087Z,90.31
2017-12-03T09:26:40.042Z,90.91
2017-12-03T09:27:43.098Z,90.03
2017-12-03T09:28:46.034Z,90.04
2017-12-03T09:29:49.140Z,89.67
2017-12-03T09:30:52.237Z,89.86
2017-12-03T09:31:55.119Z,89.86
2017-12-03T09:32:58.005Z,89.91
2017-12-03T09:34:00.951Z,90.39
2017-12-03T09:35:04.074Z,89.99
2017-12-03T09:36:07.409Z,90.21
2017-12-03T09:37:10.293Z,89.93
2017-12-03T09:38:13.165Z,90.05
2017-12-03T09:39:16.184Z,89.38
2017-12-03T09:40:19.150Z,89.23
2017-12-03T09:41:22.086Z,89.43
2017-12-03T09:42:25.522Z,90.19
2017-12-03T09:43:28.733Z,89.77
2017-12-03T09:44:31.630Z,90.17
2017-12-03T09:45:34.553Z,90.09
2017-12-03T09:46:37.491Z,89.79
2017-12-03T09:47:40.462Z,89.44
2017-12-03T09:48:43.744Z,89.72
2017-12-03T09:49:46.762Z,90.32
2017-12-03T09:50:49.754Z,89.19
2017-12-03T09:51:52.719Z,89.03
2017-12-03T09:52:55.676Z,88.95
2017-12-03T09:53:59.415Z,88.76
2017-12-03T09:55:02.643Z,88.90
2017-12-03T09:56:05.649Z,89.44
2017-12-03T09:57:08.660Z,88.95
2017-12-03T09:58:11.707Z,89.03
2017-12-03T09:59:14.668Z,88.95
2017-12-03T10:00:17.730Z,88.45
2017-12-03T10:01:21.031Z,89.36
2017-12-03T10:02:24.041Z,89.14
2017-12-03T10:03:27.059Z,89.18
2017-12-03T10:04:30.072Z,89.51
2017-12-03T10:05:33.043Z,88.98
2017-12-03T10:06:36.032Z,88.83
2017-12-03T10:07:39.224Z,88.66
2017-12-03T10:08:42.270Z,89.15
2017-12-03T10:09:45.236Z,89.46
2017-12-03T10:10:48.253Z,88.88
2017-12-03T10:11:51.255Z,89.48
2017-12-03T10:12:54.274Z,89.33
2017-12-03T10:13:57.567Z,90.03
2017-12-03T10:15:00.501Z,89.68
2017-12-03T10:16:03.583Z,89.82
2017-12-03T10:17:06.559Z,89.28
2017-12-03T10:18:09.578Z,90.14
2017-12-03T10:19:12.516Z,89.94
2017-12-03T10:20:15.791Z,90.01
2017-12-03T10:21:18.791Z,90.34
2017-12-03T10:22:21.817Z,90.04
2017-12-03T10:23:24.800Z,89.95
2017-12-03T10:24:27.783Z,90.10
2017-12-03T10:25:30.769Z,89.29
2017-12-03T10:26:33.747Z,89.40
2017-12-03T10:27:36.733Z,89.74
2017-12-03T10:28:39.910Z,90.06
2017-12-03T10:29:43.076Z,90.00
2017-12-03T10:30:46.146Z,89.99
2017-12-03T10:31:49.647Z,89.81
2017-12-03T10:32:52.705Z,90.03
2017-12-03T10:33:55.683Z,90.67
2017-12-03T10:34:58.599Z,90.57
2017-12-03T10:36:01.760Z,90.51
2017-12-03T10:37:04.780Z,90.86
2017-12-03T10:38:08.035Z,90.72
2017-12-03T10:39:11.014Z,90.86
2017-12-03T10:40:13.977Z,90.21
2017-12-03T10:41:17.097Z,90.09
2017-12-03T10:42:20.090Z,90.39
2017-12-03T10:43:23.037Z,90.39
2017-12-03T10:44:26.296Z,90.18
2017-12-03T10:45:29.321Z,89.81
2017-12-03T10:46:32.358Z,89.71
2017-12-03T10:47:35.366Z,89.30
2017-12-03T10:48:38.301Z,88.80
2017-12-03T10:49:41.345Z,88.48
2017-12-03T10:50:44.318Z,89.42
2017-12-03T10:51:47.309Z,90.10
2017-12-03T10:52:50.310Z,90.36
2017-12-03T10:53:53.261Z,89.81
2017-12-03T10:54:56.268Z,90.03
2017-12-03T10:55:59.601Z,89.87
2017-12-03T10:57:02.653Z,89.50
2017-12-03T10:58:05.643Z,89.97
2017-12-03T10:59:08.630Z,90.28
2017-12-03T11:00:11.934Z,89.83
2017-12-03T11:01:14.978Z,89.35
2017-12-03T11:02:18.392Z,90.35
2017-12-03T11:03:21.510Z,90.21
2017-12-03T11:04:24.505Z,91.03
2017-12-03T11:05:27.572Z,90.96
2017-12-03T11:06:30.459Z,90.88
2017-12-03T11:07:33.437Z,90.95
2017-12-03T11:08:36.814Z,91.09
2017-12-03T11:09:39.795Z,90.83
2017-12-03T11:10:42.830Z,90.34
2017-12-03T11:11:45.833Z,90.88
2017-12-03T11:12:48.830Z,89.80
2017-12-03T11:13:51.769Z,90.18
2017-12-03T11:14:55.001Z,89.92
2017-12-03T11:15:57.923Z,89.73
2017-12-03T11:17:01.776Z,89.80
2017-12-03T11:18:04.816Z,89.76
2017-12-03T11:19:07.782Z,90.29
2017-12-03T11:20:10.760Z,90.09
2017-12-03T11:21:14.030Z,89.70
2017-12-03T11:22:17.036Z,90.30
2017-12-03T11:23:20.015Z,89.99
2017-12-03T11:24:22.991Z,90.98
2017-12-03T11:25:26.006Z,90.67
2017-12-03T11:26:28.978Z,89.80
2017-12-03T11:27:32.271Z,89.29
2017-12-03T11:28:35.338Z,89.61
2017-12-03T11:29:38.519Z,89.76
2017-12-03T11:30:41.524Z,89.22
2017-12-03T11:31:44.580Z,90.06
2017-12-03T11:32:47.618Z,89.83
2017-12-03T11:33:50.988Z,89.29
2017-12-03T11:34:54.073Z,89.81
2017-12-03T11:35:57.134Z,89.76
2017-12-03T11:37:00.164Z,89.76
2017-12-03T11:38:03.093Z,90.40
2017-12-03T11:39:06.067Z,90.43
2017-12-03T11:40:09.376Z,90.99
2017-12-03T11:41:12.343Z,90.57
2017-12-03T11:42:15.273Z,90.38
2017-12-03T11:43:18.354Z,90.83
2017-12-03T11:44:21.287Z,90.08
2017-12-03T11:45:24.176Z,90.55
2017-12-03T11:46:27.360Z,91.00
2017-12-03T11:47:30.279Z,91.21
2017-12-03T11:48:33.255Z,91.40
2017-12-03T11:49:36.216Z,91.61
2017-12-03T11:50:39.227Z,91.80
2017-12-03T11:51:42.248Z,90.90
2017-12-03T11:52:45.518Z,91.54
2017-12-03T11:53:48.579Z,91.74
2017-12-03T11:54:51.595Z,92.11
2017-12-03T11:55:54.555Z,92.35
2017-12-03T11:56:57.558Z,92.32
2017-12-03T11:58:00.539Z,92.51
2017-12-03T11:59:03.806Z,92.54
2017-12-03T12:00:06.806Z,92.47
2017-12-03T12:01:09.774Z,92.14
2017-12-03T12:02:12.733Z,91.95
2017-12-03T12:03:15.691Z,91.77
2017-12-03T12:04:18.658Z,92.15
2017-12-03T12:05:21.840Z,91.96
2017-12-03T12:06:24.790Z,92.14
2017-12-03T12:07:27.817Z,92.68
2017-12-03T12:08:30.781Z,92.13
2017-12-03T12:09:33.750Z,91.77
2017-12-03T12:10:36.779Z,91.32
2017-12-03T12:11:40.042Z,91.96
2017-12-03T12:12:42.959Z,91.89
2017-12-03T12:13:45.820Z,91.66
2017-12-03T12:14:48.705Z,91.97
2017-12-03T12:15:51.730Z,91.30
2017-12-03T12:16:54.604Z,91.25
2017-12-03T12:17:57.901Z,90.79
2017-12-03T12:19:00.893Z,90.78
2017-12-03T12:20:03.994Z,90.54
2017-12-03T12:21:06.977Z,91.25
2017-12-03T12:22:10.012Z,91.01
2017-12-03T12:23:12.972Z,90.55
2017-12-03T12:24:16.309Z,90.77
2017-12-03T12:25:19.390Z,91.57
2017-12-03T12:26:22.391Z,91.24
2017-12-03T12:27:25.452Z,90.83
2017-12-03T12:28:28.388Z,90.03
2017-12-03T12:29:31.438Z,90.54
2017-12-03T12:30:34.658Z,90.91
2017-12-03T12:31:37.782Z,90.67
2017-12-03T12:32:40.728Z,90.52
2017-12-03T12:33:43.765Z,90.32
2017-12-03T12:34:46.976Z,91.12
2017-12-03T12:35:50.167Z,91.17
2017-12-03T12:36:53.502Z,91.23
2017-12-03T12:37:56.772Z,90.88
2017-12-03T12:38:59.699Z,90.26
2017-12-03T12:40:02.883Z,90.27
2017-12-03T12:41:05.810Z,90.71
2017-12-03T12:42:08.895Z,91.69
2017-12-03T12:43:12.208Z,92.04
2017-12-03T12:44:15.250Z,91.44
2017-12-03T12:45:18.208Z,91.71
2017-12-03T12:46:21.191Z,91.42
2017-12-03T12:47:24.349Z,91.87
2017-12-03T12:48:27.395Z,92.03
2017-12-03T12:49:30.691Z,92.02
2017-12-03T12:50:33.913Z,91.73
2017-12-03T12:51:37.040Z,91.89
2017-12-03T12:52:40.060Z,91.72
2017-12-03T12:53:43.061Z,91.90
2017-12-03T12:54:46.133Z,92.42
2017-12-03T12:55:49.579Z,91.68
2017-12-03T12:56:52.554Z,92.24
2017-12-03T12:57:55.590Z,91.96
2017-12-03T12:58:58.485Z,91.70
2017-12-03T13:00:01.386Z,91.43
2017-12-03T13:01:04.313Z,91.93
2017-12-03T13:02:07.687Z,92.19
2017-12-03T13:03:10.671Z,91.84
2017-12-03T13:04:14.941Z,91.86
2017-12-03T13:05:18.205Z,91.74
2017-12-03T13:06:21.783Z,91.97
2017-12-03T13:07:24.788Z,92.38
2017-12-03T13:08:27.907Z,90.78
2017-12-03T13:09:30.839Z,91.01
2017-12-03T13:10:33.931Z,90.95
2017-12-03T13:11:36.934Z,91.78
2017-12-03T13:12:39.946Z,91.56
2017-12-03T13:13:43.293Z,91.22
2017-12-03T13:14:46.185Z,90.48
2017-12-03T13:15:49.224Z,90.97
2017-12-03T13:16:52.227Z,91.19
2017-12-03T13:17:55.174Z,90.48
2017-12-03T13:18:58.084Z,89.06
2017-12-03T13:20:01.404Z,90.49
2017-12-03T13:21:04.415Z,89.96
2017-12-03T13:22:07.413Z,90.81
2017-12-03T13:23:10.481Z,90.71
2017-12-03T13:24:13.421Z,90.87
2017-12-03T13:25:16.410Z,90.17
2017-12-03T13:26:19.369Z,90.10
2017-12-03T13:27:22.329Z,91.15
2017-12-03T13:28:25.272Z,90.67
2017-12-03T13:29:28.587Z,90.23
2017-12-03T13:30:31.609Z,90.65
2017-12-03T13:31:34.882Z,89.84